Terminal Aerodrome Forecast
Issued by NWS

Home | Current Version | Previous Version | Text Only | Print | Product List | Glossary On
Versions: 1 2 3 4 5 6 7 8 9 10 11 12 13
921
FTUS41 KBTV 060531
TAFMPV
TAF
KMPV 060531Z 0606/0706 01006KT P6SM BKN150
      TEMPO 0606/0607 BKN030
     FM061100 36005KT P6SM SCT150
     FM061800 06009KT P6SM SCT100
     FM062000 09010KT P6SM BKN060
     FM062300 13007KT P6SM BKN045
     FM070500 18006KT P6SM BKN040=

USA.gov is the U.S. government's official web portal to all federal, state and local government web resources and services.